sensor_id;sensor_type;location;lat;lon;timestamp;temperature;humidity
13892;DHT22;7016;48.172;8.058;2023-12-29T00:00:03;10.00;99.90
13892;DHT22;7016;48.172;8.058;2023-12-29T00:02:49;10.00;99.90
13892;DHT22;7016;48.172;8.058;2023-12-29T00:05:36;10.00;99.90
13892;DHT22;7016;48.172;8.058;2023-12-29T00:08:22;10.10;99.90
13892;DHT22;7016;48.172;8.058;2023-12-29T00:11:18;10.00;99.90
13892;DHT22;7016;48.172;8.058;2023-12-29T00:14:05;10.10;99.90
13892;DHT22;7016;48.172;8.058;2023-12-29T00:16:51;10.20;99.90
13892;DHT22;7016;48.172;8.058;2023-12-29T00:19:37;10.20;99.90
13892;DHT22;7016;48.172;8.058;2023-12-29T00:22:24;10.20;99.90
13892;DHT22;7016;48.172;8.058;2023-12-29T00:25:11;10.20;99.90
13892;DHT22;7016;48.172;8.058;2023-12-29T00:27:57;10.20;99.90
13892;DHT22;7016;48.172;8.058;2023-12-29T00:30:43;10.20;99.90
13892;DHT22;7016;48.172;8.058;2023-12-29T00:33:29;10.30;99.90
13892;DHT22;7016;48.172;8.058;2023-12-29T00:36:19;10.30;99.90
13892;DHT22;7016;48.172;8.058;2023-12-29T00:39:05;10.20;99.90
13892;DHT22;7016;48.172;8.058;2023-12-29T00:41:52;10.20;99.90
13892;DHT22;7016;48.172;8.058;2023-12-29T00:44:38;10.20;99.90
13892;DHT22;7016;48.172;8.058;2023-12-29T00:47:25;10.20;99.90
13892;DHT22;7016;48.172;8.058;2023-12-29T00:50:11;10.10;99.90
13892;DHT22;7016;48.172;8.058;2023-12-29T00:52:57;10.10;99.90
13892;DHT22;7016;48.172;8.058;2023-12-29T00:55:43;10.10;99.90
13892;DHT22;7016;48.172;8.058;2023-12-29T00:58:29;10.20;99.90
13892;DHT22;7016;48.172;8.058;2023-12-29T01:01:15;10.20;99.90
13892;DHT22;7016;48.172;8.058;2023-12-29T01:04:02;10.10;99.90
13892;DHT22;7016;48.172;8.058;2023-12-29T01:06:48;10.20;99.90
13892;DHT22;7016;48.172;8.058;2023-12-29T01:09:38;10.10;99.90
13892;DHT22;7016;48.172;8.058;2023-12-29T01:12:27;10.10;99.90
13892;DHT22;7016;48.172;8.058;2023-12-29T01:15:14;10.00;99.90
13892;DHT22;7016;48.172;8.058;2023-12-29T01:18:00;10.00;99.90
13892;DHT22;7016;48.172;8.058;2023-12-29T01:20:46;10.00;99.90
13892;DHT22;7016;48.172;8.058;2023-12-29T01:23:33;9.90;99.90
13892;DHT22;7016;48.172;8.058;2023-12-29T01:26:19;10.00;99.90
13892;DHT22;7016;48.172;8.058;2023-12-29T01:29:05;9.80;99.90
13892;DHT22;7016;48.172;8.058;2023-12-29T01:31:52;9.80;99.90
13892;DHT22;7016;48.172;8.058;2023-12-29T01:34:38;9.80;99.90
13892;DHT22;7016;48.172;8.058;2023-12-29T01:37:24;9.90;99.90
13892;DHT22;7016;48.172;8.058;2023-12-29T01:40:11;9.70;99.90
13892;DHT22;7016;48.172;8.058;2023-12-29T01:42:57;9.70;99.90
13892;DHT22;7016;48.172;8.058;2023-12-29T01:45:43;9.70;99.90
13892;DHT22;7016;48.172;8.058;2023-12-29T01:48:29;9.70;99.90
13892;DHT22;7016;48.172;8.058;2023-12-29T01:51:17;9.70;99.90
13892;DHT22;7016;48.172;8.058;2023-12-29T01:54:06;9.60;99.90
13892;DHT22;7016;48.172;8.058;2023-12-29T01:56:54;9.60;99.90
13892;DHT22;7016;48.172;8.058;2023-12-29T01:59:42;9.60;99.90
13892;DHT22;7016;48.172;8.058;2023-12-29T02:02:31;9.70;99.90
13892;DHT22;7016;48.172;8.058;2023-12-29T02:05:17;9.50;99.90
13892;DHT22;7016;48.172;8.058;2023-12-29T02:08:07;9.60;99.90
13892;DHT22;7016;48.172;8.058;2023-12-29T02:10:53;9.60;99.90
13892;DHT22;7016;48.172;8.058;2023-12-29T02:13:41;9.70;99.90
13892;DHT22;7016;48.172;8.058;2023-12-29T02:19:38;9.80;99.90
13892;DHT22;7016;48.172;8.058;2023-12-29T02:22:25;9.80;99.90
13892;DHT22;7016;48.172;8.058;2023-12-29T02:25:11;9.80;99.90
13892;DHT22;7016;48.172;8.058;2023-12-29T02:28:18;9.80;99.90
13892;DHT22;7016;48.172;8.058;2023-12-29T02:31:19;9.80;99.90
13892;DHT22;7016;48.172;8.058;2023-12-29T02:34:07;9.80;99.90
13892;DHT22;7016;48.172;8.058;2023-12-29T02:36:54;9.70;99.90
13892;DHT22;7016;48.172;8.058;2023-12-29T02:39:41;9.80;99.90
13892;DHT22;7016;48.172;8.058;2023-12-29T02:42:28;9.80;99.90
13892;DHT22;7016;48.172;8.058;2023-12-29T02:45:15;9.80;99.90
13892;DHT22;7016;48.172;8.058;2023-12-29T02:48:01;9.80;99.90
13892;DHT22;7016;48.172;8.058;2023-12-29T02:50:47;9.70;99.90
13892;DHT22;7016;48.172;8.058;2023-12-29T02:53:34;9.70;99.90
13892;DHT22;7016;48.172;8.058;2023-12-29T02:56:20;9.70;99.90
13892;DHT22;7016;48.172;8.058;2023-12-29T02:59:06;9.70;99.90
13892;DHT22;7016;48.172;8.058;2023-12-29T03:01:52;9.70;99.90
13892;DHT22;7016;48.172;8.058;2023-12-29T03:04:38;9.70;99.90
13892;DHT22;7016;48.172;8.058;2023-12-29T03:07:24;9.70;99.90
13892;DHT22;7016;48.172;8.058;2023-12-29T03:10:11;9.80;99.90
13892;DHT22;7016;48.172;8.058;2023-12-29T03:12:57;9.80;99.90
13892;DHT22;7016;48.172;8.058;2023-12-29T03:15:43;9.70;99.90
13892;DHT22;7016;48.172;8.058;2023-12-29T03:18:29;9.80;99.90
13892;DHT22;7016;48.172;8.058;2023-12-29T03:21:15;9.80;99.90
13892;DHT22;7016;48.172;8.058;2023-12-29T03:24:01;9.70;99.90
13892;DHT22;7016;48.172;8.058;2023-12-29T03:26:48;9.70;99.90
13892;DHT22;7016;48.172;8.058;2023-12-29T03:29:37;9.80;99.90
13892;DHT22;7016;48.172;8.058;2023-12-29T03:32:23;9.80;99.90
13892;DHT22;7016;48.172;8.058;2023-12-29T03:35:09;9.80;99.90
13892;DHT22;7016;48.172;8.058;2023-12-29T03:37:55;9.80;99.90
13892;DHT22;7016;48.172;8.058;2023-12-29T03:40:42;9.80;99.90
13892;DHT22;7016;48.172;8.058;2023-12-29T03:43:28;9.70;99.90
13892;DHT22;7016;48.172;8.058;2023-12-29T03:46:18;9.80;99.90
13892;DHT22;7016;48.172;8.058;2023-12-29T03:49:04;9.80;99.90
13892;DHT22;7016;48.172;8.058;2023-12-29T03:51:51;9.70;99.90
13892;DHT22;7016;48.172;8.058;2023-12-29T03:54:37;9.70;99.90
13892;DHT22;7016;48.172;8.058;2023-12-29T03:57:23;9.70;99.90
13892;DHT22;7016;48.172;8.058;2023-12-29T04:00:14;9.70;99.90
13892;DHT22;7016;48.172;8.058;2023-12-29T04:03:00;9.70;99.90
13892;DHT22;7016;48.172;8.058;2023-12-29T04:05:46;9.70;99.90
13892;DHT22;7016;48.172;8.058;2023-12-29T04:08:36;9.80;99.90
13892;DHT22;7016;48.172;8.058;2023-12-29T04:11:22;9.80;99.90
13892;DHT22;7016;48.172;8.058;2023-12-29T04:14:08;9.80;99.90
13892;DHT22;7016;48.172;8.058;2023-12-29T04:16:58;9.80;99.90
13892;DHT22;7016;48.172;8.058;2023-12-29T04:19:46;9.80;99.90
13892;DHT22;7016;48.172;8.058;2023-12-29T04:22:32;9.80;99.90
13892;DHT22;7016;48.172;8.058;2023-12-29T04:25:19;9.80;99.90
13892;DHT22;7016;48.172;8.058;2023-12-29T04:28:07;9.70;99.90
13892;DHT22;7016;48.172;8.058;2023-12-29T04:30:53;9.80;99.90
13892;DHT22;7016;48.172;8.058;2023-12-29T04:33:40;9.70;99.90
13892;DHT22;7016;48.172;8.058;2023-12-29T04:36:26;9.80;99.90
13892;DHT22;7016;48.172;8.058;2023-12-29T04:39:12;9.80;99.90
13892;DHT22;7016;48.172;8.058;2023-12-29T04:41:58;9.90;99.90
13892;DHT22;7016;48.172;8.058;2023-12-29T04:44:44;9.80;99.90
13892;DHT22;7016;48.172;8.058;2023-12-29T04:47:31;9.90;99.90
13892;DHT22;7016;48.172;8.058;2023-12-29T04:50:17;9.90;99.90
13892;DHT22;7016;48.172;8.058;2023-12-29T04:53:03;9.90;99.90
13892;DHT22;7016;48.172;8.058;2023-12-29T04:55:49;9.90;99.90
13892;DHT22;7016;48.172;8.058;2023-12-29T04:58:36;9.90;99.90
13892;DHT22;7016;48.172;8.058;2023-12-29T05:01:22;9.90;99.90
13892;DHT22;7016;48.172;8.058;2023-12-29T05:04:08;9.90;99.90
13892;DHT22;7016;48.172;8.058;2023-12-29T05:06:54;9.90;99.90
13892;DHT22;7016;48.172;8.058;2023-12-29T05:09:40;9.90;99.90
13892;DHT22;7016;48.172;8.058;2023-12-29T05:12:27;10.00;99.90
13892;DHT22;7016;48.172;8.058;2023-12-29T05:15:13;10.00;99.90
13892;DHT22;7016;48.172;8.058;2023-12-29T05:17:59;9.90;99.90
13892;DHT22;7016;48.172;8.058;2023-12-29T05:20:45;11.20;99.90
13892;DHT22;7016;48.172;8.058;2023-12-29T05:23:31;9.90;99.90
13892;DHT22;7016;48.172;8.058;2023-12-29T05:26:18;9.90;99.90
13892;DHT22;7016;48.172;8.058;2023-12-29T05:29:04;10.00;99.90
13892;DHT22;7016;48.172;8.058;2023-12-29T05:31:50;10.00;99.90
13892;DHT22;7016;48.172;8.058;2023-12-29T05:34:36;10.00;99.90
13892;DHT22;7016;48.172;8.058;2023-12-29T05:37:22;10.00;99.90
13892;DHT22;7016;48.172;8.058;2023-12-29T05:40:09;10.00;99.90
13892;DHT22;7016;48.172;8.058;2023-12-29T05:42:55;10.00;99.90
13892;DHT22;7016;48.172;8.058;2023-12-29T05:45:41;10.10;99.90
13892;DHT22;7016;48.172;8.058;2023-12-29T05:48:27;10.00;99.90
13892;DHT22;7016;48.172;8.058;2023-12-29T05:51:14;10.00;99.90
13892;DHT22;7016;48.172;8.058;2023-12-29T05:54:00;10.10;99.90
13892;DHT22;7016;48.172;8.058;2023-12-29T05:56:46;10.00;99.90
13892;DHT22;7016;48.172;8.058;2023-12-29T05:59:32;10.10;99.90
13892;DHT22;7016;48.172;8.058;2023-12-29T06:02:18;10.10;99.90
13892;DHT22;7016;48.172;8.058;2023-12-29T06:05:05;10.20;99.90
13892;DHT22;7016;48.172;8.058;2023-12-29T06:07:51;10.20;99.90
13892;DHT22;7016;48.172;8.058;2023-12-29T06:10:37;10.10;99.90
13892;DHT22;7016;48.172;8.058;2023-12-29T06:13:23;10.10;99.90
13892;DHT22;7016;48.172;8.058;2023-12-29T06:16:09;10.10;99.90
13892;DHT22;7016;48.172;8.058;2023-12-29T06:18:56;10.10;99.90
13892;DHT22;7016;48.172;8.058;2023-12-29T06:21:42;10.10;99.90
13892;DHT22;7016;48.172;8.058;2023-12-29T06:24:29;10.10;99.90
13892;DHT22;7016;48.172;8.058;2023-12-29T06:27:15;10.10;99.90
13892;DHT22;7016;48.172;8.058;2023-12-29T06:30:02;10.10;99.90
13892;DHT22;7016;48.172;8.058;2023-12-29T06:32:48;10.10;99.90
13892;DHT22;7016;48.172;8.058;2023-12-29T06:35:34;10.10;99.90
13892;DHT22;7016;48.172;8.058;2023-12-29T06:38:21;10.10;99.90
13892;DHT22;7016;48.172;8.058;2023-12-29T06:41:07;10.20;99.90
13892;DHT22;7016;48.172;8.058;2023-12-29T06:43:53;10.10;99.90
13892;DHT22;7016;48.172;8.058;2023-12-29T06:46:39;10.10;99.90
13892;DHT22;7016;48.172;8.058;2023-12-29T06:49:25;10.10;99.90
13892;DHT22;7016;48.172;8.058;2023-12-29T06:52:12;10.10;99.90
13892;DHT22;7016;48.172;8.058;2023-12-29T06:54:58;10.10;99.90
13892;DHT22;7016;48.172;8.058;2023-12-29T06:57:44;10.20;99.90
13892;DHT22;7016;48.172;8.058;2023-12-29T07:00:30;10.20;99.90
13892;DHT22;7016;48.172;8.058;2023-12-29T07:03:16;10.10;99.90
13892;DHT22;7016;48.172;8.058;2023-12-29T07:06:04;10.20;99.90
13892;DHT22;7016;48.172;8.058;2023-12-29T07:08:50;10.30;99.90
13892;DHT22;7016;48.172;8.058;2023-12-29T07:11:36;10.20;99.90
13892;DHT22;7016;48.172;8.058;2023-12-29T07:14:22;10.20;99.90
13892;DHT22;7016;48.172;8.058;2023-12-29T07:17:09;10.10;99.90
13892;DHT22;7016;48.172;8.058;2023-12-29T07:19:55;10.10;99.90
13892;DHT22;7016;48.172;8.058;2023-12-29T07:22:41;10.20;99.90
13892;DHT22;7016;48.172;8.058;2023-12-29T07:25:27;10.20;99.90
13892;DHT22;7016;48.172;8.058;2023-12-29T07:28:14;10.20;99.90
13892;DHT22;7016;48.172;8.058;2023-12-29T07:31:00;10.20;99.90
13892;DHT22;7016;48.172;8.058;2023-12-29T07:33:46;10.20;99.90
13892;DHT22;7016;48.172;8.058;2023-12-29T07:36:33;10.30;99.90
13892;DHT22;7016;48.172;8.058;2023-12-29T07:39:19;10.20;99.90
13892;DHT22;7016;48.172;8.058;2023-12-29T07:42:05;10.20;99.90
13892;DHT22;7016;48.172;8.058;2023-12-29T07:44:51;10.20;99.90
13892;DHT22;7016;48.172;8.058;2023-12-29T07:47:38;10.30;99.90
13892;DHT22;7016;48.172;8.058;2023-12-29T07:50:24;10.20;99.90
13892;DHT22;7016;48.172;8.058;2023-12-29T07:53:11;10.30;99.90
13892;DHT22;7016;48.172;8.058;2023-12-29T07:55:57;10.30;99.90
13892;DHT22;7016;48.172;8.058;2023-12-29T07:58:43;10.30;99.90
13892;DHT22;7016;48.172;8.058;2023-12-29T08:01:30;10.30;99.90
13892;DHT22;7016;48.172;8.058;2023-12-29T08:04:16;10.30;99.90
13892;DHT22;7016;48.172;8.058;2023-12-29T08:07:02;10.30;99.90
13892;DHT22;7016;48.172;8.058;2023-12-29T08:09:49;10.30;99.90
13892;DHT22;7016;48.172;8.058;2023-12-29T08:12:35;10.40;99.90
13892;DHT22;7016;48.172;8.058;2023-12-29T08:15:25;10.30;99.90
13892;DHT22;7016;48.172;8.058;2023-12-29T08:18:11;10.40;99.90
13892;DHT22;7016;48.172;8.058;2023-12-29T08:20:57;10.50;99.90
13892;DHT22;7016;48.172;8.058;2023-12-29T08:23:46;10.50;99.90
13892;DHT22;7016;48.172;8.058;2023-12-29T08:26:33;10.40;99.90
13892;DHT22;7016;48.172;8.058;2023-12-29T08:29:19;10.50;99.90
13892;DHT22;7016;48.172;8.058;2023-12-29T08:32:07;10.50;99.90
13892;DHT22;7016;48.172;8.058;2023-12-29T08:34:59;10.50;99.90
13892;DHT22;7016;48.172;8.058;2023-12-29T08:37:48;10.60;99.90
13892;DHT22;7016;48.172;8.058;2023-12-29T08:40:35;10.60;99.90
13892;DHT22;7016;48.172;8.058;2023-12-29T08:43:21;10.50;99.90
13892;DHT22;7016;48.172;8.058;2023-12-29T08:46:07;10.60;99.90
13892;DHT22;7016;48.172;8.058;2023-12-29T08:51:52;10.60;99.90
13892;DHT22;7016;48.172;8.058;2023-12-29T08:54:38;10.60;99.90
13892;DHT22;7016;48.172;8.058;2023-12-29T08:57:25;10.60;99.90
13892;DHT22;7016;48.172;8.058;2023-12-29T09:00:11;10.70;99.90
13892;DHT22;7016;48.172;8.058;2023-12-29T09:02:57;10.60;99.90
13892;DHT22;7016;48.172;8.058;2023-12-29T09:05:43;10.70;99.90
13892;DHT22;7016;48.172;8.058;2023-12-29T09:08:30;10.70;99.90
13892;DHT22;7016;48.172;8.058;2023-12-29T09:11:16;10.70;99.90
13892;DHT22;7016;48.172;8.058;2023-12-29T09:14:02;10.80;99.90
13892;DHT22;7016;48.172;8.058;2023-12-29T09:16:49;10.70;99.90
13892;DHT22;7016;48.172;8.058;2023-12-29T09:19:37;10.80;99.90
13892;DHT22;7016;48.172;8.058;2023-12-29T09:22:23;10.80;99.90
13892;DHT22;7016;48.172;8.058;2023-12-29T09:25:10;10.90;99.90
13892;DHT22;7016;48.172;8.058;2023-12-29T09:27:56;10.90;99.90
13892;DHT22;7016;48.172;8.058;2023-12-29T09:30:42;10.90;99.90
13892;DHT22;7016;48.172;8.058;2023-12-29T09:33:28;10.90;99.90
13892;DHT22;7016;48.172;8.058;2023-12-29T09:36:14;10.90;99.90
13892;DHT22;7016;48.172;8.058;2023-12-29T09:39:00;11.00;99.90
13892;DHT22;7016;48.172;8.058;2023-12-29T09:41:51;11.00;99.90
13892;DHT22;7016;48.172;8.058;2023-12-29T09:44:37;10.90;99.90
13892;DHT22;7016;48.172;8.058;2023-12-29T09:47:24;11.00;99.90
13892;DHT22;7016;48.172;8.058;2023-12-29T09:50:12;11.00;99.90
13892;DHT22;7016;48.172;8.058;2023-12-29T09:52:59;11.00;99.90
13892;DHT22;7016;48.172;8.058;2023-12-29T09:55:48;11.00;99.90
13892;DHT22;7016;48.172;8.058;2023-12-29T09:58:35;11.00;99.90
13892;DHT22;7016;48.172;8.058;2023-12-29T10:01:24;11.10;99.90
13892;DHT22;7016;48.172;8.058;2023-12-29T10:04:13;11.00;99.90
13892;DHT22;7016;48.172;8.058;2023-12-29T10:07:02;11.10;99.90
13892;DHT22;7016;48.172;8.058;2023-12-29T10:09:56;11.10;99.90
13892;DHT22;7016;48.172;8.058;2023-12-29T10:12:43;11.10;99.90
13892;DHT22;7016;48.172;8.058;2023-12-29T10:15:51;11.10;99.90
13892;DHT22;7016;48.172;8.058;2023-12-29T10:21:56;10.90;99.90
13892;DHT22;7016;48.172;8.058;2023-12-29T10:24:44;10.90;99.90
13892;DHT22;7016;48.172;8.058;2023-12-29T10:27:32;10.90;99.90
13892;DHT22;7016;48.172;8.058;2023-12-29T10:30:19;10.90;99.90
13892;DHT22;7016;48.172;8.058;2023-12-29T10:33:06;11.00;99.90
13892;DHT22;7016;48.172;8.058;2023-12-29T10:35:57;10.90;99.90
13892;DHT22;7016;48.172;8.058;2023-12-29T10:38:44;10.90;99.90
13892;DHT22;7016;48.172;8.058;2023-12-29T10:41:30;10.90;99.90
13892;DHT22;7016;48.172;8.058;2023-12-29T10:44:16;10.90;99.90
13892;DHT22;7016;48.172;8.058;2023-12-29T10:47:13;10.90;99.90
13892;DHT22;7016;48.172;8.058;2023-12-29T10:50:02;10.90;99.90
13892;DHT22;7016;48.172;8.058;2023-12-29T10:52:49;10.90;99.90
13892;DHT22;7016;48.172;8.058;2023-12-29T10:55:35;10.90;99.90
13892;DHT22;7016;48.172;8.058;2023-12-29T10:58:22;11.00;99.90
13892;DHT22;7016;48.172;8.058;2023-12-29T11:01:14;11.00;99.90
13892;DHT22;7016;48.172;8.058;2023-12-29T11:04:06;11.00;99.90
13892;DHT22;7016;48.172;8.058;2023-12-29T11:06:52;11.00;99.90
13892;DHT22;7016;48.172;8.058;2023-12-29T11:09:39;11.10;99.90
13892;DHT22;7016;48.172;8.058;2023-12-29T11:12:25;11.10;99.90
13892;DHT22;7016;48.172;8.058;2023-12-29T11:15:14;11.00;99.90
13892;DHT22;7016;48.172;8.058;2023-12-29T11:18:00;11.00;99.90
13892;DHT22;7016;48.172;8.058;2023-12-29T11:20:50;11.00;99.90
13892;DHT22;7016;48.172;8.058;2023-12-29T11:23:36;11.10;99.90
13892;DHT22;7016;48.172;8.058;2023-12-29T11:26:23;11.10;99.90
13892;DHT22;7016;48.172;8.058;2023-12-29T11:29:11;11.10;99.90
13892;DHT22;7016;48.172;8.058;2023-12-29T11:31:58;11.20;99.90
13892;DHT22;7016;48.172;8.058;2023-12-29T11:34:53;11.20;99.90
13892;DHT22;7016;48.172;8.058;2023-12-29T11:38:08;11.30;99.90
13892;DHT22;7016;48.172;8.058;2023-12-29T11:44:00;11.30;99.90
13892;DHT22;7016;48.172;8.058;2023-12-29T11:46:46;11.30;99.90
13892;DHT22;7016;48.172;8.058;2023-12-29T11:49:58;11.30;99.90
13892;DHT22;7016;48.172;8.058;2023-12-29T11:52:47;11.40;99.90
13892;DHT22;7016;48.172;8.058;2023-12-29T11:55:38;11.40;99.90
13892;DHT22;7016;48.172;8.058;2023-12-29T11:58:26;11.50;99.90
13892;DHT22;7016;48.172;8.058;2023-12-29T12:01:32;11.50;99.90
13892;DHT22;7016;48.172;8.058;2023-12-29T12:04:43;11.50;99.90
13892;DHT22;7016;48.172;8.058;2023-12-29T12:13:05;11.50;99.90
13892;DHT22;7016;48.172;8.058;2023-12-29T12:15:52;11.50;99.90
13892;DHT22;7016;48.172;8.058;2023-12-29T12:18:39;11.40;99.90
13892;DHT22;7016;48.172;8.058;2023-12-29T12:21:26;11.40;99.90
13892;DHT22;7016;48.172;8.058;2023-12-29T12:24:12;11.30;99.90
13892;DHT22;7016;48.172;8.058;2023-12-29T12:26:58;11.40;99.90
13892;DHT22;7016;48.172;8.058;2023-12-29T12:29:45;11.40;99.90
13892;DHT22;7016;48.172;8.058;2023-12-29T12:32:31;11.30;99.90
13892;DHT22;7016;48.172;8.058;2023-12-29T12:35:18;11.30;99.90
13892;DHT22;7016;48.172;8.058;2023-12-29T12:38:13;11.30;99.90
13892;DHT22;7016;48.172;8.058;2023-12-29T12:41:10;11.30;99.90
13892;DHT22;7016;48.172;8.058;2023-12-29T12:44:11;11.20;99.90
13892;DHT22;7016;48.172;8.058;2023-12-29T12:46:59;11.20;99.90
13892;DHT22;7016;48.172;8.058;2023-12-29T12:49:47;11.30;99.90
13892;DHT22;7016;48.172;8.058;2023-12-29T12:52:35;11.20;99.90
13892;DHT22;7016;48.172;8.058;2023-12-29T12:55:22;11.20;99.90
13892;DHT22;7016;48.172;8.058;2023-12-29T12:58:08;11.20;99.90
13892;DHT22;7016;48.172;8.058;2023-12-29T13:00:57;11.20;99.90
13892;DHT22;7016;48.172;8.058;2023-12-29T13:03:44;11.20;99.90
13892;DHT22;7016;48.172;8.058;2023-12-29T13:06:32;11.30;99.90
13892;DHT22;7016;48.172;8.058;2023-12-29T13:09:19;11.40;99.90
13892;DHT22;7016;48.172;8.058;2023-12-29T13:12:12;11.40;99.90
13892;DHT22;7016;48.172;8.058;2023-12-29T13:15:08;11.40;99.90
13892;DHT22;7016;48.172;8.058;2023-12-29T13:17:55;11.40;99.90
13892;DHT22;7016;48.172;8.058;2023-12-29T13:20:46;11.50;99.90
13892;DHT22;7016;48.172;8.058;2023-12-29T13:23:33;11.50;99.90
13892;DHT22;7016;48.172;8.058;2023-12-29T13:26:19;11.40;99.90
13892;DHT22;7016;48.172;8.058;2023-12-29T13:29:06;11.30;99.90
13892;DHT22;7016;48.172;8.058;2023-12-29T13:31:54;11.30;99.90
13892;DHT22;7016;48.172;8.058;2023-12-29T13:40:41;11.20;99.90
13892;DHT22;7016;48.172;8.058;2023-12-29T13:43:37;11.30;99.90
13892;DHT22;7016;48.172;8.058;2023-12-29T13:46:28;11.30;99.90
13892;DHT22;7016;48.172;8.058;2023-12-29T13:49:15;11.30;99.90
13892;DHT22;7016;48.172;8.058;2023-12-29T13:52:03;11.40;99.90
13892;DHT22;7016;48.172;8.058;2023-12-29T13:54:50;11.40;99.90
13892;DHT22;7016;48.172;8.058;2023-12-29T13:57:36;11.30;99.90
13892;DHT22;7016;48.172;8.058;2023-12-29T14:00:25;11.20;99.90
13892;DHT22;7016;48.172;8.058;2023-12-29T14:03:23;11.20;99.90
13892;DHT22;7016;48.172;8.058;2023-12-29T14:06:20;11.30;99.90
13892;DHT22;7016;48.172;8.058;2023-12-29T14:09:07;11.30;99.90
13892;DHT22;7016;48.172;8.058;2023-12-29T14:12:00;11.30;99.90
13892;DHT22;7016;48.172;8.058;2023-12-29T14:14:47;11.40;99.90
13892;DHT22;7016;48.172;8.058;2023-12-29T14:17:33;11.30;99.90
13892;DHT22;7016;48.172;8.058;2023-12-29T14:20:35;11.20;99.90
13892;DHT22;7016;48.172;8.058;2023-12-29T14:23:21;11.20;99.90
13892;DHT22;7016;48.172;8.058;2023-12-29T14:26:08;11.00;99.90
13892;DHT22;7016;48.172;8.058;2023-12-29T14:29:10;11.20;99.90
13892;DHT22;7016;48.172;8.058;2023-12-29T14:31:57;11.30;99.90
13892;DHT22;7016;48.172;8.058;2023-12-29T14:34:48;11.20;99.90
13892;DHT22;7016;48.172;8.058;2023-12-29T14:37:38;11.30;99.90
13892;DHT22;7016;48.172;8.058;2023-12-29T14:40:25;11.30;99.90
13892;DHT22;7016;48.172;8.058;2023-12-29T14:43:11;11.30;99.90
13892;DHT22;7016;48.172;8.058;2023-12-29T14:45:57;11.30;99.90
13892;DHT22;7016;48.172;8.058;2023-12-29T14:48:44;11.30;99.90
13892;DHT22;7016;48.172;8.058;2023-12-29T14:51:30;11.20;99.90
13892;DHT22;7016;48.172;8.058;2023-12-29T14:54:16;11.20;99.90
13892;DHT22;7016;48.172;8.058;2023-12-29T14:57:03;11.20;99.90
13892;DHT22;7016;48.172;8.058;2023-12-29T14:59:49;11.30;99.90
13892;DHT22;7016;48.172;8.058;2023-12-29T15:02:35;11.30;99.90
13892;DHT22;7016;48.172;8.058;2023-12-29T15:05:22;11.20;99.90
13892;DHT22;7016;48.172;8.058;2023-12-29T15:08:08;11.20;99.90
13892;DHT22;7016;48.172;8.058;2023-12-29T15:10:55;11.20;99.90
13892;DHT22;7016;48.172;8.058;2023-12-29T15:13:41;11.20;99.90
13892;DHT22;7016;48.172;8.058;2023-12-29T15:16:28;11.20;99.90
13892;DHT22;7016;48.172;8.058;2023-12-29T15:19:14;11.20;99.90
13892;DHT22;7016;48.172;8.058;2023-12-29T15:22:00;11.30;99.90
13892;DHT22;7016;48.172;8.058;2023-12-29T15:24:46;11.30;99.90
13892;DHT22;7016;48.172;8.058;2023-12-29T15:27:33;11.20;99.90
13892;DHT22;7016;48.172;8.058;2023-12-29T15:30:19;11.10;99.90
13892;DHT22;7016;48.172;8.058;2023-12-29T15:33:05;11.10;99.90
13892;DHT22;7016;48.172;8.058;2023-12-29T15:35:51;11.20;99.90
13892;DHT22;7016;48.172;8.058;2023-12-29T15:38:38;11.20;99.90
13892;DHT22;7016;48.172;8.058;2023-12-29T15:41:24;11.20;99.90
13892;DHT22;7016;48.172;8.058;2023-12-29T15:44:10;11.20;99.90
13892;DHT22;7016;48.172;8.058;2023-12-29T15:46:56;11.10;99.90
13892;DHT22;7016;48.172;8.058;2023-12-29T15:49:43;11.10;99.90
13892;DHT22;7016;48.172;8.058;2023-12-29T15:52:29;11.10;99.90
13892;DHT22;7016;48.172;8.058;2023-12-29T15:55:16;11.10;99.90
13892;DHT22;7016;48.172;8.058;2023-12-29T15:58:02;11.10;99.90
13892;DHT22;7016;48.172;8.058;2023-12-29T16:00:50;11.10;99.90
13892;DHT22;7016;48.172;8.058;2023-12-29T16:03:36;11.00;99.90
13892;DHT22;7016;48.172;8.058;2023-12-29T16:06:26;11.10;99.90
13892;DHT22;7016;48.172;8.058;2023-12-29T16:09:13;11.00;99.90
13892;DHT22;7016;48.172;8.058;2023-12-29T16:12:00;11.00;99.90
13892;DHT22;7016;48.172;8.058;2023-12-29T16:14:46;11.10;99.90
13892;DHT22;7016;48.172;8.058;2023-12-29T16:17:32;11.10;99.90
13892;DHT22;7016;48.172;8.058;2023-12-29T16:20:19;11.00;99.90
13892;DHT22;7016;48.172;8.058;2023-12-29T16:23:05;11.00;99.90
13892;DHT22;7016;48.172;8.058;2023-12-29T16:25:51;11.00;99.90
13892;DHT22;7016;48.172;8.058;2023-12-29T16:28:37;11.00;99.90
13892;DHT22;7016;48.172;8.058;2023-12-29T16:31:23;11.00;99.90
13892;DHT22;7016;48.172;8.058;2023-12-29T16:34:09;11.00;99.90
13892;DHT22;7016;48.172;8.058;2023-12-29T16:36:58;11.00;99.90
13892;DHT22;7016;48.172;8.058;2023-12-29T16:39:44;11.00;99.90
13892;DHT22;7016;48.172;8.058;2023-12-29T16:42:30;10.90;99.90
13892;DHT22;7016;48.172;8.058;2023-12-29T16:45:16;11.00;99.90
13892;DHT22;7016;48.172;8.058;2023-12-29T16:48:03;11.00;99.90
13892;DHT22;7016;48.172;8.058;2023-12-29T16:50:49;11.00;99.90
13892;DHT22;7016;48.172;8.058;2023-12-29T16:53:35;11.00;99.90
13892;DHT22;7016;48.172;8.058;2023-12-29T16:56:21;11.00;99.90
13892;DHT22;7016;48.172;8.058;2023-12-29T16:59:08;10.90;99.90
13892;DHT22;7016;48.172;8.058;2023-12-29T17:01:54;13.00;99.90
13892;DHT22;7016;48.172;8.058;2023-12-29T17:04:41;11.00;99.90
13892;DHT22;7016;48.172;8.058;2023-12-29T17:07:27;10.90;99.90
13892;DHT22;7016;48.172;8.058;2023-12-29T17:10:14;10.90;99.90
13892;DHT22;7016;48.172;8.058;2023-12-29T17:13:00;10.90;99.90
13892;DHT22;7016;48.172;8.058;2023-12-29T17:15:46;11.00;99.90
13892;DHT22;7016;48.172;8.058;2023-12-29T17:18:32;11.00;99.90
13892;DHT22;7016;48.172;8.058;2023-12-29T17:21:18;11.00;99.90
13892;DHT22;7016;48.172;8.058;2023-12-29T17:24:05;10.90;99.90
13892;DHT22;7016;48.172;8.058;2023-12-29T17:26:51;10.90;99.90
13892;DHT22;7016;48.172;8.058;2023-12-29T17:29:37;10.90;99.90
13892;DHT22;7016;48.172;8.058;2023-12-29T17:32:25;10.90;99.90
13892;DHT22;7016;48.172;8.058;2023-12-29T17:35:11;10.90;99.90
13892;DHT22;7016;48.172;8.058;2023-12-29T17:37:57;11.00;99.90
13892;DHT22;7016;48.172;8.058;2023-12-29T17:40:43;10.90;99.90
13892;DHT22;7016;48.172;8.058;2023-12-29T17:43:29;10.90;99.90
13892;DHT22;7016;48.172;8.058;2023-12-29T17:46:16;10.90;99.90
13892;DHT22;7016;48.172;8.058;2023-12-29T17:49:02;10.90;99.90
13892;DHT22;7016;48.172;8.058;2023-12-29T17:51:48;10.90;99.90
13892;DHT22;7016;48.172;8.058;2023-12-29T17:54:35;10.90;99.90
13892;DHT22;7016;48.172;8.058;2023-12-29T17:57:23;10.80;99.90
13892;DHT22;7016;48.172;8.058;2023-12-29T18:00:10;10.80;99.90
13892;DHT22;7016;48.172;8.058;2023-12-29T18:02:56;10.80;99.90
13892;DHT22;7016;48.172;8.058;2023-12-29T18:05:42;10.80;99.90
13892;DHT22;7016;48.172;8.058;2023-12-29T18:08:30;10.70;99.90
13892;DHT22;7016;48.172;8.058;2023-12-29T18:11:18;10.80;99.90
13892;DHT22;7016;48.172;8.058;2023-12-29T18:14:05;10.80;99.90
13892;DHT22;7016;48.172;8.058;2023-12-29T18:16:51;10.70;99.90
13892;DHT22;7016;48.172;8.058;2023-12-29T18:19:38;10.70;99.90
13892;DHT22;7016;48.172;8.058;2023-12-29T18:22:24;10.10;99.90